Time;durP1;ratioP1;P1;durP2;ratioP2;P2;SDS_P1;SDS_P2;PMS_P1;PMS_P2;Temp;Humidity;BMP_temperature;BMP_pressure;BME280_temperature;BME280_humidity;BME280_pressure;Samples;Min_cycle;Max_cycle;Signal;HPM_P1;HPM_P2
2021/07/24 00:02:18;;;;;;;19.63;12.43;;;;;;;17.79;88.21;95410.19;5012558;28;20420;-75
2021/07/24 00:04:43;;;;;;;16.20;12.23;;;;;;;17.63;89.79;95397.75;5011897;28;20825;-75
2021/07/24 00:07:09;;;;;;;13.27;10.90;;;;;;;17.84;87.78;95390.47;5011577;28;20432;-75
2021/07/24 00:09:34;;;;;;;16.97;12.00;;;;;;;17.74;88.74;95387.03;5011912;28;20417;-75
2021/07/24 00:11:59;;;;;;;18.85;12.48;;;;;;;17.58;90.25;95389.53;5011977;28;20814;-75
2021/07/24 00:14:27;;;;;;;14.30;11.80;;;;;;;17.52;89.75;95388.31;5010611;28;20421;-75
2021/07/24 00:16:52;;;;;;;16.10;11.48;;;;;;;17.50;88.80;95390.25;5011481;28;20440;-75
2021/07/24 00:19:18;;;;;;;16.38;12.30;;;;;;;17.39;89.13;95396.53;5011348;28;20514;-75
2021/07/24 00:21:43;;;;;;;13.30;11.53;;;;;;;17.36;89.76;95390.75;5011807;28;20725;-75
2021/07/24 00:24:08;;;;;;;15.00;11.83;;;;;;;17.33;90.59;95388.44;5011683;28;20833;-76
2021/07/24 00:26:34;;;;;;;14.48;11.70;;;;;;;17.41;90.61;95393.75;5011332;28;20422;-75
2021/07/24 00:29:02;;;;;;;15.90;12.20;;;;;;;17.50;91.53;95394.66;5011617;28;20894;-76
2021/07/24 00:31:29;;;;;;;18.05;12.48;;;;;;;17.54;91.25;95394.22;5011686;28;20428;-76
2021/07/24 00:33:54;;;;;;;14.15;11.75;;;;;;;17.61;90.43;95381.34;5011472;28;20477;-76
2021/07/24 00:36:20;;;;;;;12.70;11.33;;;;;;;17.67;89.77;95368.47;5011298;28;20417;-76
2021/07/24 00:38:45;;;;;;;16.40;12.57;;;;;;;17.67;89.89;95371.09;5011369;28;20412;-76
2021/07/24 00:41:19;;;;;;;16.70;12.48;;;;;;;17.64;89.86;95370.56;5011495;28;20941;-75
2021/07/24 00:43:46;;;;;;;14.05;11.23;;;;;;;17.64;89.92;95360.91;5011367;28;20794;-75
2021/07/24 00:46:13;;;;;;;15.60;11.30;;;;;;;17.85;86.75;95365.91;5011118;28;20408;-75
2021/07/24 00:48:41;;;;;;;14.30;10.68;;;;;;;17.83;85.27;95361.78;5010782;28;20519;-75
2021/07/24 00:51:06;;;;;;;14.35;12.05;;;;;;;17.63;86.93;95348.81;5009988;28;20421;-75
2021/07/24 00:53:35;;;;;;;16.47;11.63;;;;;;;17.56;87.71;95339.91;5011180;28;20508;-75
2021/07/24 00:56:01;;;;;;;14.25;12.13;;;;;;;17.42;88.85;95345.66;5009634;28;20504;-75
2021/07/24 00:58:28;;;;;;;16.70;12.55;;;;;;;17.23;90.66;95346.59;5011592;28;20405;-75
2021/07/24 01:00:54;;;;;;;15.27;13.27;;;;;;;17.21;90.75;95334.66;5010903;28;20930;-75
2021/07/24 01:03:20;;;;;;;20.50;12.85;;;;;;;17.12;91.15;95339.78;5011004;28;20436;-75
2021/07/24 01:05:50;;;;;;;17.48;13.43;;;;;;;17.10;91.19;95339.13;5010164;28;20949;-75
2021/07/24 01:08:16;;;;;;;16.27;13.50;;;;;;;17.11;91.08;95343.38;5010968;28;20429;-76
2021/07/24 01:10:42;;;;;;;15.18;12.90;;;;;;;17.11;89.41;95338.13;5011014;28;20483;-75
2021/07/24 01:13:07;;;;;;;14.00;12.52;;;;;;;17.08;89.21;95335.00;5009755;28;20428;-76
2021/07/24 01:15:33;;;;;;;19.77;13.77;;;;;;;16.88;91.13;95334.28;5010687;28;20412;-76
2021/07/24 01:17:58;;;;;;;18.33;13.30;;;;;;;16.87;91.03;95328.25;5009403;28;20428;-75
2021/07/24 01:20:25;;;;;;;14.37;12.70;;;;;;;16.82;92.65;95325.22;5010488;28;20504;-75
2021/07/24 01:22:52;;;;;;;20.65;13.30;;;;;;;16.85;92.52;95329.34;5010723;28;20459;-76
2021/07/24 01:25:18;;;;;;;18.70;13.25;;;;;;;16.83;93.10;95328.66;5009329;28;20420;-75
2021/07/24 01:27:45;;;;;;;20.30;13.43;;;;;;;16.84;93.46;95328.53;5010882;28;20798;-76
2021/07/24 01:30:11;;;;;;;22.85;12.98;;;;;;;16.95;92.92;95340.59;5009346;28;20424;-76
2021/07/24 01:32:37;;;;;;;13.95;12.52;;;;;;;17.00;93.27;95346.19;5009575;28;20964;-75
2021/07/24 01:35:03;;;;;;;14.27;11.60;;;;;;;17.09;92.96;95341.88;5010865;28;20416;-75
2021/07/24 01:37:28;;;;;;;18.42;12.75;;;;;;;17.16;92.95;95351.59;5010470;28;20420;-75
2021/07/24 01:39:55;;;;;;;14.83;11.80;;;;;;;17.16;92.02;95356.84;5009390;28;20431;-76
2021/07/24 01:42:21;;;;;;;14.80;12.15;;;;;;;17.20;91.95;95351.31;5010715;28;20437;-76
2021/07/24 01:44:46;;;;;;;14.43;12.13;;;;;;;17.03;93.12;95353.75;5010518;28;20424;-75
2021/07/24 01:47:11;;;;;;;18.97;12.47;;;;;;;17.03;93.24;95360.78;5009194;28;20420;-76
2021/07/24 01:52:46;;;;;;;15.05;12.32;;;;;;;17.16;91.04;95375.16;5030395;28;20437;-75
2021/07/24 01:55:16;;;;;;;16.10;11.73;;;;;;;17.14;91.27;95371.06;5029873;28;20419;-75
2021/07/24 01:57:47;;;;;;;20.05;12.57;;;;;;;17.10;91.96;95385.41;5030863;28;20419;-75
2021/07/24 02:00:14;;;;;;;14.80;11.70;;;;;;;17.09;92.37;95371.50;5034217;23;20911;-78
2021/07/24 02:02:42;;;;;;;14.90;12.13;;;;;;;17.25;90.82;95376.09;5003945;28;20429;-77
2021/07/24 02:05:14;;;;;;;15.35;12.55;;;;;;;17.39;90.48;95364.25;5009778;28;20820;-78
2021/07/24 02:07:43;;;;;;;17.08;12.82;;;;;;;17.26;91.74;95369.88;5012114;28;20428;-78
2021/07/24 02:10:09;;;;;;;15.23;12.75;;;;;;;17.19;92.75;95366.19;5011996;28;20412;-78
2021/07/24 02:12:36;;;;;;;25.08;12.57;;;;;;;17.00;93.91;95355.84;5012047;28;20744;-78
2021/07/24 02:15:02;;;;;;;14.85;12.63;;;;;;;16.96;94.36;95365.75;5012342;28;20936;-78
2021/07/24 02:17:30;;;;;;;19.33;13.35;;;;;;;16.89;95.08;95367.31;5013421;28;20898;-78
2021/07/24 02:19:57;;;;;;;14.02;12.45;;;;;;;16.93;95.04;95363.44;5015082;28;20466;-78
2021/07/24 02:22:22;;;;;;;16.50;11.43;;;;;;;17.15;93.14;95364.84;5015244;28;20416;-78
2021/07/24 02:24:47;;;;;;;17.07;12.67;;;;;;;17.30;92.33;95368.59;5015748;28;20416;-78
2021/07/24 02:27:13;;;;;;;15.63;12.90;;;;;;;17.11;93.87;95363.50;5013485;28;20440;-78
2021/07/24 02:29:40;;;;;;;13.98;12.48;;;;;;;16.98;94.33;95370.84;5014145;28;20424;-78
2021/07/24 02:32:06;;;;;;;15.55;12.63;;;;;;;16.98;94.22;95358.59;5013943;28;20425;-78
2021/07/24 02:34:32;;;;;;;16.80;12.38;;;;;;;17.01;94.55;95365.31;5015514;28;20412;-78
2021/07/24 02:36:57;;;;;;;14.33;12.30;;;;;;;17.06;94.56;95366.56;5015695;28;20759;-78
2021/07/24 02:39:22;;;;;;;15.90;12.13;;;;;;;17.12;94.24;95367.75;5016193;28;20456;-78
2021/07/24 02:41:48;;;;;;;15.00;12.40;;;;;;;17.17;93.99;95368.97;5013976;28;20431;-78
2021/07/24 02:44:13;;;;;;;13.87;12.23;;;;;;;17.29;92.60;95363.53;5016985;28;20424;-78
2021/07/24 02:46:40;;;;;;;15.93;12.43;;;;;;;17.30;92.80;95355.50;5015824;28;20523;-78
2021/07/24 02:49:07;;;;;;;19.45;12.43;;;;;;;17.30;93.23;95352.06;5015243;28;20424;-78
2021/07/24 02:51:33;;;;;;;14.00;12.17;;;;;;;17.32;92.83;95340.50;5015084;28;20914;-78
2021/07/24 02:53:58;;;;;;;14.17;12.03;;;;;;;17.53;92.23;95331.53;5015099;28;20431;-78
2021/07/24 02:56:23;;;;;;;14.93;12.83;;;;;;;17.51;91.85;95333.47;5014661;28;20420;-78
2021/07/24 02:58:49;;;;;;;15.10;13.30;;;;;;;17.38;92.61;95336.44;5013982;28;20925;-78
2021/07/24 03:01:14;;;;;;;17.63;11.97;;;;;;;17.22;93.70;95331.88;5014700;28;20492;-78
2021/07/24 03:03:41;;;;;;;20.48;12.60;;;;;;;17.22;94.02;95333.69;5014771;28;20412;-78
2021/07/24 03:06:06;;;;;;;15.52;13.18;;;;;;;17.06;93.31;95316.03;5012790;28;20790;-78
2021/07/24 03:08:32;;;;;;;14.87;12.73;;;;;;;17.12;93.40;95316.22;5014303;28;20429;-78
2021/07/24 03:10:57;;;;;;;16.10;11.80;;;;;;;17.22;93.61;95310.13;5006277;28;20480;-78
2021/07/24 03:13:22;;;;;;;16.07;13.27;;;;;;;17.23;93.87;95301.28;5013040;28;20467;-78
2021/07/24 03:15:48;;;;;;;19.13;14.07;;;;;;;17.36;92.25;95312.22;5013739;28;20575;-78
2021/07/24 03:18:13;;;;;;;15.38;13.68;;;;;;;17.24;93.28;95306.38;5014057;28;20417;-78
2021/07/24 03:20:40;;;;;;;15.87;13.17;;;;;;;17.03;93.97;95304.03;5014458;28;20416;-78
2021/07/24 03:23:05;;;;;;;15.63;13.00;;;;;;;17.07;94.56;95312.44;5013805;28;20421;-78
2021/07/24 03:25:31;;;;;;;15.60;13.83;;;;;;;17.09;94.30;95318.31;5015054;28;20423;-78
2021/07/24 03:27:56;;;;;;;16.55;13.40;;;;;;;17.04;93.70;95318.75;5014554;28;20428;-78
2021/07/24 03:30:21;;;;;;;14.63;12.83;;;;;;;17.08;93.52;95327.97;5014918;28;20972;-78
2021/07/24 03:32:47;;;;;;;17.10;12.70;;;;;;;17.05;93.64;95341.34;5015250;28;20451;-78
2021/07/24 03:35:12;;;;;;;14.00;12.57;;;;;;;17.08;93.56;95338.44;5013849;28;20412;-78
2021/07/24 03:37:39;;;;;;;14.63;12.30;;;;;;;17.09;93.64;95328.78;5014669;28;20555;-78
2021/07/24 03:40:05;;;;;;;19.00;13.20;;;;;;;16.88;94.21;95329.88;5014574;28;20417;-78
2021/07/24 03:42:31;;;;;;;14.90;12.25;;;;;;;16.97;94.36;95337.81;5014994;28;20416;-78
2021/07/24 03:44:56;;;;;;;14.77;11.83;;;;;;;16.92;93.66;95349.53;5019994;28;20503;-78
2021/07/24 03:47:21;;;;;;;15.47;13.13;;;;;;;16.96;93.58;95344.03;5019624;28;20910;-78
2021/07/24 03:49:47;;;;;;;15.13;11.82;;;;;;;16.79;94.46;95340.38;5015804;28;20420;-78
2021/07/24 03:52:12;;;;;;;15.17;12.30;;;;;;;16.86;94.42;95341.44;5014697;28;20818;-78
2021/07/24 03:54:39;;;;;;;15.70;11.80;;;;;;;17.00;93.69;95348.00;5014389;28;20482;-78
2021/07/24 03:57:04;;;;;;;14.63;11.35;;;;;;;17.12;93.46;95350.25;5014729;28;20420;-78
2021/07/24 03:59:30;;;;;;;13.95;12.10;;;;;;;17.09;92.00;95341.88;5013267;28;20841;-78
2021/07/24 04:01:57;;;;;;;13.38;11.63;;;;;;;17.12;92.02;95342.41;5013199;28;20921;-78
2021/07/24 04:04:23;;;;;;;16.95;12.48;;;;;;;16.94;93.49;95346.75;5014572;28;20417;-78
2021/07/24 04:06:50;;;;;;;16.30;12.70;;;;;;;16.81;94.91;95341.88;5014042;28;20925;-78
2021/07/24 04:09:16;;;;;;;14.18;12.30;;;;;;;16.89;94.27;95333.31;5012929;28;20425;-78
2021/07/24 04:11:43;;;;;;;15.13;12.50;;;;;;;16.88;95.03;95336.91;5013537;28;20515;-78
2021/07/24 04:14:09;;;;;;;16.73;11.55;;;;;;;16.85;95.12;95318.88;5013629;28;20423;-78
2021/07/24 04:16:35;;;;;;;14.73;12.38;;;;;;;17.32;92.50;95337.06;5013785;28;20417;-78
2021/07/24 04:19:01;;;;;;;15.00;13.00;;;;;;;17.00;94.67;95350.59;5022528;28;20418;-78
2021/07/24 04:21:27;;;;;;;20.08;13.20;;;;;;;16.74;96.64;95350.44;5022893;28;20420;-78
2021/07/24 04:23:53;;;;;;;15.20;12.77;;;;;;;16.78;96.43;95352.63;5013779;28;20451;-78
2021/07/24 04:26:19;;;;;;;19.97;13.37;;;;;;;17.06;94.91;95350.84;4993674;28;20422;-78
2021/07/24 04:28:45;;;;;;;19.17;12.73;;;;;;;16.84;95.83;95369.56;4994086;28;20430;-78
2021/07/24 04:31:12;;;;;;;13.73;12.23;;;;;;;16.90;95.33;95361.91;4992599;28;20765;-78
2021/07/24 04:33:37;;;;;;;15.83;13.37;;;;;;;16.64;98.06;95371.38;4993599;28;20451;-78
2021/07/24 04:36:03;;;;;;;15.10;11.90;;;;;;;16.79;97.01;95371.75;4993319;28;20480;-78
2021/07/24 04:38:29;;;;;;;14.68;12.43;;;;;;;16.83;96.41;95376.53;4993346;28;20426;-78
2021/07/24 04:40:54;;;;;;;15.02;11.98;;;;;;;16.83;95.91;95380.97;4992765;28;20418;-78
2021/07/24 04:43:19;;;;;;;13.77;12.33;;;;;;;16.69;97.37;95371.78;4992489;28;20935;-78
2021/07/24 04:45:46;;;;;;;13.20;11.60;;;;;;;17.08;95.78;95363.78;4991859;28;20450;-78
2021/07/24 04:48:12;;;;;;;15.93;12.27;;;;;;;17.15;96.30;95370.06;4995707;28;20857;-78
2021/07/24 04:50:42;;;;;;;16.10;11.40;;;;;;;17.09;96.24;95371.50;5012379;28;20518;-78
2021/07/24 04:53:08;;;;;;;14.38;12.38;;;;;;;17.18;96.15;95386.31;5014153;28;20432;-79
2021/07/24 04:55:35;;;;;;;13.95;12.10;;;;;;;17.12;96.18;95365.94;5013511;28;20782;-78
2021/07/24 04:58:01;;;;;;;14.17;12.63;;;;;;;17.03;97.54;95376.47;5014303;28;20794;-78
2021/07/24 05:00:26;;;;;;;15.87;12.20;;;;;;;16.87;99.01;95377.09;5012789;28;20507;-77
2021/07/24 05:02:55;;;;;;;15.43;12.43;;;;;;;16.86;98.99;95389.34;5010977;28;20886;-76
2021/07/24 05:05:20;;;;;;;21.37;14.07;;;;;;;17.08;98.50;95379.47;5010871;28;20935;-76
2021/07/24 05:07:45;;;;;;;16.43;13.37;;;;;;;16.98;98.34;95379.50;5014210;28;20429;-78
2021/07/24 05:10:11;;;;;;;16.73;12.83;;;;;;;17.45;97.15;95378.56;5011282;28;20516;-77
2021/07/24 05:12:37;;;;;;;18.88;14.50;;;;;;;17.32;95.08;95368.47;5011170;28;20431;-77
2021/07/24 05:15:03;;;;;;;17.13;14.35;;;;;;;17.25;94.67;95372.66;5011001;28;20438;-76
2021/07/24 05:17:28;;;;;;;17.38;13.65;;;;;;;17.10;96.01;95383.59;5010985;28;20425;-76
2021/07/24 05:19:55;;;;;;;16.17;12.55;;;;;;;17.11;97.40;95392.28;5010737;28;20405;-76
2021/07/24 05:22:20;;;;;;;17.02;13.23;;;;;;;17.26;97.20;95397.84;5010917;28;20937;-76
2021/07/24 05:24:46;;;;;;;15.80;12.63;;;;;;;17.14;96.62;95395.41;5009655;28;20460;-77
2021/07/24 05:27:12;;;;;;;17.00;12.87;;;;;;;17.11;97.61;95410.59;5010569;28;20428;-76
2021/07/24 05:29:38;;;;;;;14.02;12.23;;;;;;;17.24;97.40;95408.44;5009562;28;20439;-76
2021/07/24 05:32:04;;;;;;;16.30;12.53;;;;;;;17.31;96.17;95417.34;5009493;28;20914;-76
2021/07/24 05:34:29;;;;;;;19.33;13.80;;;;;;;17.10;96.87;95422.84;5010732;28;20516;-76
2021/07/24 05:36:56;;;;;;;15.98;12.10;;;;;;;17.21;96.65;95426.25;5008825;28;20516;-79
2021/07/24 05:39:21;;;;;;;14.70;12.10;;;;;;;17.25;95.80;95427.59;5011293;28;20496;-79
2021/07/24 05:41:47;;;;;;;15.17;12.63;;;;;;;17.28;95.89;95429.91;5013157;28;20448;-77
2021/07/24 05:44:14;;;;;;;13.73;12.17;;;;;;;17.44;95.15;95442.38;5010565;28;20930;-76
2021/07/24 05:46:40;;;;;;;14.48;12.32;;;;;;;17.47;92.62;95439.47;5003568;28;20435;-76
2021/07/24 05:49:05;;;;;;;17.93;12.37;;;;;;;17.36;93.31;95433.47;5009154;28;20445;-76
2021/07/24 05:51:31;;;;;;;13.07;11.70;;;;;;;17.36;93.30;95449.16;5011608;28;20825;-76
2021/07/24 05:53:57;;;;;;;17.37;12.60;;;;;;;17.43;93.10;95446.78;5014597;28;20511;-76
2021/07/24 05:56:23;;;;;;;14.13;12.10;;;;;;;17.43;93.03;95467.75;5014254;28;20416;-76
2021/07/24 05:58:48;;;;;;;18.50;12.83;;;;;;;17.46;95.25;95464.81;5014382;28;20408;-76
2021/07/24 06:01:14;;;;;;;13.57;11.93;;;;;;;17.37;95.66;95471.75;5015803;28;20431;-78
2021/07/24 06:03:40;;;;;;;16.52;12.90;;;;;;;17.32;97.01;95481.03;5017033;28;20424;-79
2021/07/24 06:06:06;;;;;;;14.90;12.32;;;;;;;17.37;96.34;95497.94;5018064;28;20424;-79
2021/07/24 06:08:31;;;;;;;18.00;12.93;;;;;;;17.38;98.08;95506.59;5016641;28;20435;-76
2021/07/24 06:10:59;;;;;;;23.00;12.60;;;;;;;17.25;98.27;95508.75;5014228;28;20802;-73
2021/07/24 06:13:24;;;;;;;15.02;12.10;;;;;;;17.26;99.88;95507.75;5012884;28;20424;-74
2021/07/24 06:15:50;;;;;;;14.80;12.15;;;;;;;17.43;100.00;95512.25;5013627;28;20426;-74
2021/07/24 06:18:15;;;;;;;19.40;12.27;;;;;;;17.52;100.00;95519.22;5017642;28;20449;-78
2021/07/24 06:20:41;;;;;;;13.67;12.00;;;;;;;17.60;100.00;95519.31;5039285;28;20441;-78
2021/07/24 06:23:06;;;;;;;18.23;13.15;;;;;;;17.69;99.38;95512.41;5034404;28;20473;-77
2021/07/24 06:25:32;;;;;;;17.57;13.03;;;;;;;17.86;97.31;95503.75;5012596;28;20832;-76
2021/07/24 06:27:59;;;;;;;19.63;13.38;;;;;;;18.02;97.09;95497.03;5012524;28;20972;-76
2021/07/24 06:30:25;;;;;;;15.38;11.82;;;;;;;18.01;99.07;95477.88;5013658;28;20507;-76
2021/07/24 06:32:51;;;;;;;13.68;12.10;;;;;;;17.96;97.97;95459.16;5013743;28;20448;-76
2021/07/24 06:35:16;;;;;;;16.50;12.77;;;;;;;17.86;96.87;95440.06;5013539;28;20428;-76
2021/07/24 06:37:42;;;;;;;16.77;12.45;;;;;;;17.94;97.13;95440.13;5016845;28;20408;-78
2021/07/24 06:40:08;;;;;;;18.03;11.93;;;;;;;17.92;100.00;95462.25;5017218;28;20413;-78
2021/07/24 06:42:34;;;;;;;15.57;11.88;;;;;;;17.89;100.00;95437.97;5017322;28;20428;-78
2021/07/24 06:45:01;;;;;;;23.00;12.85;;;;;;;18.18;96.46;95421.19;5019252;28;20412;-78
2021/07/24 06:47:26;;;;;;;14.07;12.68;;;;;;;18.40;95.84;95421.69;5019410;28;20922;-78
2021/07/24 06:49:52;;;;;;;16.03;14.23;;;;;;;18.54;98.65;95419.34;5017311;28;20431;-78
2021/07/24 06:52:17;;;;;;;19.63;14.23;;;;;;;18.34;98.64;95436.22;5015702;28;20474;-76
2021/07/24 06:54:43;;;;;;;15.50;13.47;;;;;;;18.19;100.00;95429.88;5013586;28;20756;-76
2021/07/24 06:57:08;;;;;;;15.77;14.07;;;;;;;18.24;100.00;95431.06;5013206;28;20782;-76
2021/07/24 06:59:33;;;;;;;18.40;14.00;;;;;;;18.29;100.00;95433.25;5013157;28;20798;-76
2021/07/24 07:02:00;;;;;;;16.07;13.70;;;;;;;18.37;100.00;95435.94;5012114;28;20790;-76
2021/07/24 07:04:26;;;;;;;18.93;14.50;;;;;;;18.47;100.00;95441.09;5012227;28;20507;-76
2021/07/24 07:06:51;;;;;;;18.83;14.13;;;;;;;18.50;100.00;95438.13;5011676;28;20509;-76
2021/07/24 07:09:17;;;;;;;17.33;13.93;;;;;;;18.52;100.00;95450.13;5013312;28;20452;-76
2021/07/24 07:11:42;;;;;;;15.70;14.07;;;;;;;18.48;100.00;95469.78;5013702;28;20425;-75
2021/07/24 07:14:07;;;;;;;21.43;14.10;;;;;;;18.41;100.00;95457.44;5012780;28;20429;-76
2021/07/24 07:16:33;;;;;;;16.88;12.98;;;;;;;18.27;100.00;95453.53;5013006;28;20419;-76
2021/07/24 07:19:00;;;;;;;21.73;14.07;;;;;;;18.45;100.00;95448.28;5021967;28;20904;-75
2021/07/24 07:21:25;;;;;;;20.80;13.77;;;;;;;18.58;100.00;95459.19;5022259;28;20512;-76
2021/07/24 07:23:51;;;;;;;21.33;14.27;;;;;;;18.62;100.00;95471.84;5012870;28;20509;-76
2021/07/24 07:26:22;;;;;;;18.80;14.50;;;;;;;18.48;100.00;95487.31;5012641;28;20417;-76
2021/07/24 07:28:47;;;;;;;18.60;14.30;;;;;;;18.34;100.00;95505.22;5012694;28;20859;-76
2021/07/24 07:31:12;;;;;;;18.07;13.57;;;;;;;18.35;100.00;95522.63;5012653;28;20475;-76
2021/07/24 07:33:38;;;;;;;19.05;13.18;;;;;;;18.35;100.00;95496.41;5012696;28;20442;-76
2021/07/24 07:36:05;;;;;;;18.43;13.87;;;;;;;18.72;100.00;95507.69;5012561;28;20416;-70
2021/07/24 07:38:30;;;;;;;18.65;13.75;;;;;;;18.47;100.00;95517.97;5012732;28;20409;-76
2021/07/24 07:40:55;;;;;;;20.43;13.80;;;;;;;18.50;100.00;95509.78;5012418;28;20876;-76
2021/07/24 07:43:21;;;;;;;15.50;13.13;;;;;;;18.54;100.00;95495.41;5012689;28;20413;-76
2021/07/24 07:45:46;;;;;;;19.63;12.70;;;;;;;18.60;100.00;95496.56;5011238;28;20764;-76
2021/07/24 07:48:11;;;;;;;19.50;13.10;;;;;;;18.83;100.00;95486.44;5012271;28;20429;-75
2021/07/24 07:50:37;;;;;;;17.50;12.07;;;;;;;18.86;99.76;95470.38;5012341;28;20421;-76
2021/07/24 07:53:04;;;;;;;15.30;13.20;;;;;;;18.88;98.01;95451.88;5012336;28;20994;-76
2021/07/24 07:55:30;;;;;;;15.70;12.90;;;;;;;19.04;95.42;95433.59;5011973;28;20427;-76
2021/07/24 07:57:55;;;;;;;14.67;11.70;;;;;;;19.76;91.32;95394.63;5012178;28;20417;-76
2021/07/24 08:00:21;;;;;;;21.42;12.88;;;;;;;20.10;95.16;95364.75;5011278;28;20428;-76
2021/07/24 08:02:51;;;;;;;15.38;12.77;;;;;;;19.98;94.79;95366.88;5012299;28;20448;-76
2021/07/24 08:05:16;;;;;;;14.57;12.93;;;;;;;19.69;96.63;95356.84;5010691;28;20448;-76
2021/07/24 08:07:41;;;;;;;17.30;12.43;;;;;;;19.96;96.16;95372.31;5012490;28;20464;-76
2021/07/24 08:10:09;;;;;;;17.37;13.03;;;;;;;20.10;94.66;95362.13;5011893;28;20413;-76
2021/07/24 08:12:34;;;;;;;17.23;12.75;;;;;;;20.13;92.60;95359.16;5012002;28;20886;-76
2021/07/24 08:15:00;;;;;;;14.57;13.00;;;;;;;20.16;94.71;95366.72;5011698;28;20413;-76
2021/07/24 08:17:25;;;;;;;18.10;13.40;;;;;;;20.09;95.61;95373.63;5010113;28;20903;-76
2021/07/24 08:19:50;;;;;;;15.45;12.68;;;;;;;20.08;94.71;95372.00;5011613;28;20775;-76
2021/07/24 08:22:16;;;;;;;13.70;12.30;;;;;;;20.38;87.82;95358.16;5010566;28;20421;-76
2021/07/24 08:24:41;;;;;;;16.47;13.60;;;;;;;20.33;90.70;95357.84;5011589;28;20810;-76
2021/07/24 08:27:08;;;;;;;15.65;12.77;;;;;;;20.34;92.81;95375.25;5010014;28;20432;-76
2021/07/24 08:29:33;;;;;;;18.83;13.17;;;;;;;20.38;92.45;95373.94;5011836;28;20490;-75
2021/07/24 08:31:59;;;;;;;16.30;12.90;;;;;;;20.56;92.78;95359.81;5011639;28;20898;-75
2021/07/24 08:34:24;;;;;;;14.98;12.85;;;;;;;20.73;91.58;95372.78;5011600;28;20440;-72
2021/07/24 08:36:50;;;;;;;18.30;13.47;;;;;;;20.72;90.08;95378.19;5007632;28;20435;-75
2021/07/24 08:39:15;;;;;;;19.90;13.23;;;;;;;20.89;88.60;95369.25;5008090;28;20428;-75
2021/07/24 08:41:41;;;;;;;17.53;13.23;;;;;;;21.05;84.79;95378.09;5009879;28;20479;-75
2021/07/24 08:44:09;;;;;;;17.85;12.63;;;;;;;21.34;84.33;95383.59;5009978;28;20930;-75
2021/07/24 08:46:35;;;;;;;19.10;12.82;;;;;;;21.37;82.87;95380.63;5011041;28;20784;-75
2021/07/24 08:49:00;;;;;;;16.65;12.52;;;;;;;21.45;81.51;95385.03;5010871;28;20443;-75
2021/07/24 08:51:30;;;;;;;15.00;11.93;;;;;;;21.49;81.16;95387.13;5011293;28;20416;-75
2021/07/24 08:53:57;;;;;;;21.77;12.53;;;;;;;21.51;82.01;95384.34;5010855;28;20419;-76
2021/07/24 08:56:25;;;;;;;14.88;12.02;;;;;;;21.75;82.95;95388.63;5010760;28;20499;-75
2021/07/24 08:58:55;;;;;;;19.70;12.70;;;;;;;21.62;82.48;95385.78;5011389;28;20425;-75
2021/07/24 09:01:22;;;;;;;15.60;11.90;;;;;;;21.51;81.86;95386.97;5011136;28;20424;-75
2021/07/24 09:03:48;;;;;;;17.83;11.90;;;;;;;21.52;82.11;95393.06;5011175;28;20770;-76
2021/07/24 09:06:18;;;;;;;18.70;12.40;;;;;;;21.94;81.14;95400.53;5010565;28;20778;-75
2021/07/24 09:08:45;;;;;;;18.02;11.38;;;;;;;22.19;78.40;95398.56;5010807;28;20898;-75
2021/07/24 09:11:11;;;;;;;14.83;12.57;;;;;;;22.18;76.91;95404.84;5011060;28;20479;-75
2021/07/24 09:13:36;;;;;;;14.70;11.13;;;;;;;22.52;77.91;95403.59;5011215;28;20416;-77
2021/07/24 09:16:02;;;;;;;15.32;11.50;;;;;;;22.79;74.13;95405.63;5010871;28;20427;-76
2021/07/24 09:18:31;;;;;;;17.23;11.50;;;;;;;23.07;74.54;95397.94;5014462;28;20502;-74
2021/07/24 09:20:57;;;;;;;13.35;10.93;;;;;;;23.27;72.17;95394.72;5030727;28;20442;-74
2021/07/24 09:23:27;;;;;;;14.10;10.80;;;;;;;23.74;72.84;95396.94;5030612;28;20473;-74
2021/07/24 09:25:53;;;;;;;13.75;10.07;;;;;;;23.73;67.70;95399.75;5031224;28;20899;-74
2021/07/24 09:28:18;;;;;;;13.98;10.52;;;;;;;23.84;69.76;95397.47;5037069;28;20429;-74
2021/07/24 09:30:44;;;;;;;14.95;10.30;;;;;;;23.82;66.48;95394.19;5032985;28;20420;-74
2021/07/24 09:33:11;;;;;;;17.40;10.33;;;;;;;23.88;67.94;95388.16;5017419;28;20412;-74
2021/07/24 09:35:39;;;;;;;14.20;10.38;;;;;;;24.13;67.95;95383.28;5016770;28;20419;-74
2021/07/24 09:38:05;;;;;;;12.70;9.02;;;;;;;23.92;63.41;95391.25;5017388;28;20413;-75
2021/07/24 09:40:33;;;;;;;11.85;9.73;;;;;;;24.02;63.22;95399.66;5017199;28;20424;-74
2021/07/24 09:42:59;;;;;;;10.35;7.97;;;;;;;23.93;61.89;95400.81;5018588;28;20921;-75
2021/07/24 09:45:25;;;;;;;11.85;8.55;;;;;;;24.18;62.05;95403.91;5020829;28;20430;-74
2021/07/24 09:47:52;;;;;;;11.05;8.80;;;;;;;24.42;60.96;95397.41;5018817;28;20447;-75
2021/07/24 09:50:18;;;;;;;11.15;8.73;;;;;;;24.28;63.03;95401.72;5037634;28;20411;-74
2021/07/24 09:52:46;;;;;;;16.73;9.63;;;;;;;24.07;65.36;95402.59;5037071;28;20497;-74
2021/07/24 09:55:20;;;;;;;15.10;9.30;;;;;;;23.93;65.12;95402.63;5035439;28;21102;-74
2021/07/24 09:57:46;;;;;;;13.85;9.60;;;;;;;23.82;65.43;95393.38;5037101;28;20480;-74
2021/07/24 10:00:30;;;;;;;15.23;9.77;;;;;;;23.89;65.10;95402.19;5036698;28;20411;-74
2021/07/24 10:03:01;;;;;;;14.52;9.35;;;;;;;24.07;64.44;95410.50;5036881;28;20446;-74
2021/07/24 10:05:34;;;;;;;14.13;8.73;;;;;;;24.55;63.38;95402.00;5035840;28;20418;-74
2021/07/24 10:08:03;;;;;;;12.32;9.35;;;;;;;24.81;62.04;95394.25;5015763;28;20424;-74
2021/07/24 10:10:29;;;;;;;12.13;8.68;;;;;;;25.17;58.07;95385.31;5015542;28;20507;-74
2021/07/24 10:12:55;;;;;;;14.90;8.50;;;;;;;25.22;57.38;95379.44;5017084;28;20588;-74
2021/07/24 10:15:20;;;;;;;13.30;8.38;;;;;;;25.13;57.19;95381.41;5016477;28;21149;-74
2021/07/24 10:17:47;;;;;;;16.20;8.17;;;;;;;25.20;56.62;95378.81;5016470;28;20913;-74
2021/07/24 10:20:16;;;;;;;12.75;8.27;;;;;;;25.13;57.36;95383.25;5035732;28;20824;-74
2021/07/24 10:22:42;;;;;;;12.27;8.17;;;;;;;25.79;59.44;95383.56;4997470;28;20414;-74
2021/07/24 10:25:10;;;;;;;12.67;8.33;;;;;;;26.17;55.42;95378.50;4997188;28;20418;-74
2021/07/24 10:27:37;;;;;;;12.23;8.52;;;;;;;26.14;54.58;95376.28;4997146;28;20422;-74
2021/07/24 10:30:05;;;;;;;10.07;7.50;;;;;;;25.83;53.71;95366.22;4997116;28;20429;-74
2021/07/24 10:32:31;;;;;;;15.27;8.13;;;;;;;25.28;54.95;95370.69;5015688;28;20437;-74
2021/07/24 10:34:57;;;;;;;9.52;7.63;;;;;;;25.52;54.90;95372.03;5016884;28;20479;-74
2021/07/24 10:37:30;;;;;;;9.13;7.65;;;;;;;25.26;55.80;95368.25;5015630;28;20500;-74
2021/07/24 10:40:30;;;;;;;11.43;7.95;;;;;;;25.48;56.09;95371.59;5013615;28;20883;-74
2021/07/24 10:42:57;;;;;;;12.70;7.70;;;;;;;25.57;55.16;95367.75;5012065;28;20938;-74
2021/07/24 10:45:52;;;;;;;11.93;7.77;;;;;;;25.73;55.56;95371.84;5013220;28;20428;-74
2021/07/24 10:48:27;;;;;;;13.05;8.05;;;;;;;25.90;54.86;95368.88;5016780;28;20431;-74
2021/07/24 10:51:15;;;;;;;13.10;7.82;;;;;;;26.18;54.61;95374.00;5031731;28;20458;-74
2021/07/24 10:54:03;;;;;;;12.43;7.38;;;;;;;26.17;54.19;95365.25;5033161;28;20411;-75
2021/07/24 10:56:37;;;;;;;10.30;7.05;;;;;;;26.33;52.17;95371.16;5031653;28;20768;-74
2021/07/24 10:59:21;;;;;;;11.32;6.43;;;;;;;25.78;51.87;95376.59;5032945;28;20910;-74
2021/07/24 11:01:48;;;;;;;12.38;6.90;;;;;;;26.03;53.20;95376.84;5033211;28;20422;-74
2021/07/24 11:04:38;;;;;;;10.55;6.45;;;;;;;26.13;53.10;95368.50;5032930;28;20414;-74
2021/07/24 11:07:39;;;;;;;9.55;6.32;;;;;;;26.01;50.46;95371.75;5018506;28;20439;-74
2021/07/24 11:10:06;;;;;;;12.05;6.30;;;;;;;26.34;49.96;95367.50;5013156;28;20478;-74
2021/07/24 11:12:35;;;;;;;9.68;6.25;;;;;;;26.14;50.84;95359.50;5013058;28;20448;-74
2021/07/24 11:15:02;;;;;;;10.85;6.45;;;;;;;26.31;51.76;95353.59;5013037;28;20413;-74
2021/07/24 11:17:27;;;;;;;10.10;5.63;;;;;;;26.20;49.83;95340.94;5012682;28;20409;-75
2021/07/24 11:20:30;;;;;;;10.83;5.97;;;;;;;26.03;51.15;95348.50;5029097;28;20418;-76